createdAt,value
2024-03-05T00:00:22.908Z,68.73
2024-03-05T00:05:24.933Z,68.72
2024-03-05T00:10:26.568Z,68.35
2024-03-05T00:15:28.403Z,67.89
2024-03-05T00:20:30.074Z,68.39
2024-03-05T00:25:31.774Z,69.17
2024-03-05T00:30:33.434Z,68.81
2024-03-05T00:35:35.310Z,67.92
2024-03-05T00:40:36.950Z,68.62
2024-03-05T00:45:38.570Z,68.55
2024-03-05T00:50:41.080Z,68.33
2024-03-05T00:55:42.796Z,71.42
2024-03-05T01:00:44.547Z,74.21
2024-03-05T01:05:46.668Z,70.44
2024-03-05T01:10:48.336Z,69.75
2024-03-05T01:15:50.001Z,68.40
2024-03-05T01:20:51.571Z,67.85
2024-03-05T01:25:53.257Z,68.78
2024-03-05T01:30:55.670Z,68.45
2024-03-05T01:35:57.893Z,68.08
2024-03-05T01:40:59.536Z,67.92
2024-03-05T01:46:01.345Z,68.40
2024-03-05T01:51:03.301Z,68.10
2024-03-05T01:56:06.036Z,68.35
2024-03-05T02:01:08.305Z,68.23
2024-03-05T02:06:12.155Z,68.22
2024-03-05T02:11:14.820Z,68.00
2024-03-05T02:16:17.060Z,67.84
2024-03-05T02:21:22.364Z,67.90
2024-03-05T02:26:25.424Z,67.85
2024-03-05T02:31:27.247Z,67.88
2024-03-05T02:36:28.854Z,67.09
2024-03-05T02:41:30.524Z,66.82
2024-03-05T02:46:32.299Z,66.44
2024-03-05T02:51:33.942Z,67.80
2024-03-05T02:56:35.625Z,65.67
2024-03-05T03:01:37.944Z,66.13
2024-03-05T03:06:40.894Z,66.58
2024-03-05T03:11:43.147Z,66.19
2024-03-05T03:16:45.349Z,65.88
2024-03-05T03:21:47.107Z,66.00
2024-03-05T03:26:49.902Z,66.15
2024-03-05T03:31:51.624Z,65.61
2024-03-05T03:36:54.742Z,65.74
2024-03-05T03:41:56.581Z,65.40
2024-03-05T03:46:58.348Z,64.98
2024-03-05T03:52:00.775Z,64.98
2024-03-05T03:57:02.346Z,66.22
2024-03-05T04:02:05.015Z,67.58
2024-03-05T04:07:07.620Z,64.07
2024-03-05T04:12:09.415Z,63.41
2024-03-05T04:17:11.020Z,63.33
2024-03-05T04:22:15.373Z,63.42
2024-03-05T04:27:19.744Z,62.74
2024-03-05T04:32:22.072Z,63.11
2024-03-05T04:37:23.715Z,62.75
2024-03-05T04:42:26.596Z,63.15
2024-03-05T04:47:28.226Z,63.23
2024-03-05T04:52:32.733Z,62.08
2024-03-05T04:57:35.701Z,62.77
2024-03-05T05:02:37.312Z,63.00
2024-03-05T05:07:38.957Z,63.02
2024-03-05T05:12:41.130Z,62.72
2024-03-05T05:17:42.853Z,62.18
2024-03-05T05:22:45.633Z,61.90
2024-03-05T05:27:50.778Z,62.71
2024-03-05T05:32:53.382Z,62.96
2024-03-05T05:37:55.291Z,61.68
2024-03-05T05:42:56.936Z,61.69
2024-03-05T05:47:59.479Z,61.53
2024-03-05T05:53:01.573Z,62.08
2024-03-05T05:58:05.478Z,61.89
2024-03-05T06:03:12.312Z,61.97
2024-03-05T06:08:16.005Z,61.81
2024-03-05T06:13:17.774Z,62.40
2024-03-05T06:18:19.513Z,64.21
2024-03-05T06:23:21.340Z,62.91
2024-03-05T06:28:23.003Z,63.77
2024-03-05T06:33:24.796Z,65.13
2024-03-05T06:38:26.428Z,63.60
2024-03-05T06:43:40.013Z,62.91
2024-03-05T06:48:49.068Z,68.25
2024-03-05T06:54:09.267Z,69.48
2024-03-05T06:59:11.692Z,64.43
2024-03-05T07:04:13.552Z,66.28
2024-03-05T07:09:15.143Z,65.16
2024-03-05T07:14:17.275Z,63.53
2024-03-05T07:19:18.936Z,62.81
2024-03-05T07:24:20.535Z,63.32
2024-03-05T07:29:22.180Z,70.27
2024-03-05T07:34:23.916Z,69.98
2024-03-05T07:39:25.990Z,70.21
2024-03-05T07:44:28.055Z,70.32
2024-03-05T07:49:29.797Z,70.83
2024-03-05T07:54:31.540Z,69.77
2024-03-05T07:59:33.377Z,70.43
2024-03-05T08:04:35.119Z,70.11
2024-03-05T08:09:37.963Z,70.86
2024-03-05T08:14:39.576Z,71.78
2024-03-05T08:19:42.666Z,71.35
2024-03-05T08:24:44.334Z,71.42
2024-03-05T08:29:46.355Z,69.95
2024-03-05T08:34:48.134Z,70.54
2024-03-05T08:39:51.305Z,68.44
2024-03-05T08:44:53.149Z,62.45
2024-03-05T08:49:55.196Z,61.70
2024-03-05T08:54:57.601Z,63.72
2024-03-05T09:00:13.164Z,62.89
2024-03-05T09:05:22.724Z,60.79
2024-03-05T09:10:24.456Z,62.92
2024-03-05T09:15:27.105Z,63.86
2024-03-05T09:20:28.789Z,65.15
2024-03-05T09:25:31.541Z,63.21
2024-03-05T09:30:35.012Z,63.65
2024-03-05T09:35:37.171Z,65.10
2024-03-05T09:40:41.479Z,65.27
2024-03-05T09:45:46.132Z,65.47
2024-03-05T09:50:49.908Z,65.98
2024-03-05T09:55:54.021Z,65.09
2024-03-05T10:00:55.738Z,65.87
2024-03-05T10:05:57.996Z,62.63
2024-03-05T10:11:04.972Z,63.58
2024-03-05T10:16:17.558Z,63.79
2024-03-05T10:21:23.628Z,63.65
2024-03-05T10:26:28.516Z,60.30
2024-03-05T10:31:30.428Z,58.95
2024-03-05T10:36:37.497Z,60.04
2024-03-05T10:41:47.448Z,58.55
2024-03-05T10:46:56.405Z,58.67
2024-03-05T10:52:00.967Z,58.38
2024-03-05T10:57:02.608Z,60.11
2024-03-05T11:02:06.542Z,61.04
2024-03-05T11:07:08.642Z,59.28
2024-03-05T11:12:17.831Z,61.06
2024-03-05T11:17:20.957Z,60.77
2024-03-05T11:22:24.949Z,60.03
2024-03-05T11:27:29.357Z,59.75
2024-03-05T11:32:35.643Z,60.45
2024-03-05T11:38:07.412Z,59.47
2024-03-05T11:43:09.038Z,60.32
2024-03-05T11:48:12.657Z,61.57
2024-03-05T11:53:14.892Z,61.44
2024-03-05T11:58:16.588Z,59.93
2024-03-05T12:03:21.057Z,61.84
2024-03-05T12:08:26.098Z,62.02
2024-03-05T12:13:28.556Z,61.69
2024-03-05T12:18:30.397Z,62.29
2024-03-05T12:23:41.601Z,62.31
2024-03-05T12:28:44.926Z,62.41
2024-03-05T12:33:47.138Z,63.00
2024-03-05T12:38:48.799Z,62.53
2024-03-05T12:43:57.091Z,63.56
2024-03-05T12:48:59.906Z,63.86
2024-03-05T12:54:08.971Z,63.34
2024-03-05T12:59:20.835Z,64.87
2024-03-05T13:04:22.530Z,67.20
2024-03-05T13:09:24.369Z,66.87
2024-03-05T13:14:27.195Z,68.49
2024-03-05T13:19:29.202Z,68.49
2024-03-05T13:24:32.438Z,67.75
2024-03-05T13:29:34.043Z,67.62
2024-03-05T13:34:35.727Z,71.54
2024-03-05T13:39:37.390Z,71.70
2024-03-05T13:44:39.448Z,71.88
2024-03-05T13:49:41.110Z,76.33
2024-03-05T13:54:42.778Z,77.77
2024-03-05T13:59:44.948Z,78.71
2024-03-05T14:04:48.385Z,81.73
2024-03-05T14:09:50.557Z,83.09
2024-03-05T14:14:52.194Z,87.08
2024-03-05T14:19:53.957Z,84.46
2024-03-05T14:24:55.750Z,85.79
2024-03-05T14:29:57.801Z,85.07
2024-03-05T14:34:59.865Z,85.31
2024-03-05T14:40:01.832Z,83.42
2024-03-05T14:45:03.634Z,82.34
2024-03-05T14:50:06.302Z,82.45
2024-03-05T14:55:13.720Z,82.08
2024-03-05T15:00:17.324Z,81.24
2024-03-05T15:05:20.284Z,81.21
2024-03-05T15:10:22.997Z,83.06
2024-03-05T15:15:25.268Z,82.11
2024-03-05T15:20:26.934Z,80.91
2024-03-05T15:25:28.663Z,80.59
2024-03-05T15:30:33.126Z,80.63
2024-03-05T15:35:36.352Z,79.84
2024-03-05T15:40:39.018Z,64.62
2024-03-05T15:45:41.747Z,63.54
2024-03-05T15:50:45.861Z,64.98
2024-03-05T15:55:47.897Z,66.34
2024-03-05T16:00:49.773Z,65.54
2024-03-05T16:06:00.028Z,66.48
2024-03-05T16:11:08.559Z,65.52
2024-03-05T16:16:10.773Z,66.70
2024-03-05T16:21:14.339Z,66.83
2024-03-05T16:26:16.913Z,65.83
2024-03-05T16:31:18.577Z,65.57
2024-03-05T16:36:20.512Z,66.32
2024-03-05T16:41:22.329Z,68.46
2024-03-05T16:46:25.139Z,69.15
2024-03-05T16:51:26.791Z,69.66
2024-03-05T16:56:28.436Z,69.12
2024-03-05T17:01:30.143Z,69.10
2024-03-05T17:06:33.125Z,68.14
2024-03-05T17:11:35.179Z,68.45
2024-03-05T17:16:47.107Z,68.25
2024-03-05T17:21:50.641Z,68.31
2024-03-05T17:26:52.354Z,67.74
2024-03-05T17:31:55.775Z,67.23
2024-03-05T17:36:57.585Z,66.70
2024-03-05T17:42:00.019Z,67.96
2024-03-05T17:47:01.795Z,68.42
2024-03-05T17:52:03.758Z,68.39
2024-03-05T17:57:07.482Z,67.54
2024-03-05T18:02:09.580Z,67.26
2024-03-05T18:07:11.241Z,68.36
2024-03-05T18:12:15.786Z,69.05
2024-03-05T18:17:17.863Z,68.46
2024-03-05T18:22:19.755Z,68.42
2024-03-05T18:27:22.685Z,67.37
2024-03-05T18:32:26.536Z,69.70
2024-03-05T18:37:28.204Z,69.88
2024-03-05T18:42:29.884Z,68.10
2024-03-05T18:47:31.572Z,67.46
2024-03-05T18:52:33.608Z,71.43
2024-03-05T18:57:35.291Z,76.21
2024-03-05T19:02:36.916Z,76.86
2024-03-05T19:07:38.674Z,77.14
2024-03-05T19:12:41.123Z,79.08
2024-03-05T19:17:43.918Z,79.87
2024-03-05T19:22:45.590Z,79.51
2024-03-05T19:27:47.253Z,79.18
2024-03-05T19:32:49.824Z,80.24
2024-03-05T19:37:51.569Z,80.19
2024-03-05T19:42:59.338Z,80.79
2024-03-05T19:48:01.069Z,74.64
2024-03-05T19:53:03.703Z,71.81
2024-03-05T19:58:05.590Z,71.85
2024-03-05T20:03:07.202Z,72.19
2024-03-05T20:08:09.263Z,72.02
2024-03-05T20:13:11.093Z,71.79
2024-03-05T20:18:12.765Z,72.15
2024-03-05T20:23:14.530Z,71.33
2024-03-05T20:28:16.520Z,69.49
2024-03-05T20:33:18.251Z,70.62
2024-03-05T20:38:19.866Z,70.71
2024-03-05T20:43:21.503Z,70.88
2024-03-05T20:48:23.104Z,69.99
2024-03-05T20:53:24.839Z,70.95
2024-03-05T20:58:26.474Z,70.98
2024-03-05T21:03:31.536Z,70.95
2024-03-05T21:08:33.243Z,70.21
2024-03-05T21:13:42.731Z,69.67
2024-03-05T21:18:44.636Z,70.62
2024-03-05T21:23:46.245Z,70.94
2024-03-05T21:28:47.918Z,69.89
2024-03-05T21:33:50.246Z,70.51
2024-03-05T21:38:51.872Z,71.34
2024-03-05T21:43:53.590Z,70.49
2024-03-05T21:48:55.443Z,71.60
2024-03-05T21:53:57.876Z,71.53
2024-03-05T21:58:59.500Z,70.76
2024-03-05T22:04:01.152Z,71.92
2024-03-05T22:09:10.127Z,71.57
2024-03-05T22:14:12.891Z,69.66
2024-03-05T22:19:14.626Z,70.89
2024-03-05T22:24:16.878Z,71.31
2024-03-05T22:29:18.647Z,70.16
2024-03-05T22:34:20.284Z,70.67
2024-03-05T22:39:22.228Z,70.08
2024-03-05T22:44:24.828Z,69.56
2024-03-05T22:49:26.472Z,69.73
2024-03-05T22:54:28.690Z,69.90
2024-03-05T22:59:31.270Z,68.95
2024-03-05T23:04:33.841Z,68.85
2024-03-05T23:09:35.890Z,70.17
2024-03-05T23:14:37.802Z,69.51
2024-03-05T23:19:41.727Z,69.01
2024-03-05T23:24:44.667Z,68.93
2024-03-05T23:29:47.162Z,69.04
2024-03-05T23:34:48.792Z,68.86
2024-03-05T23:39:50.455Z,68.63
2024-03-05T23:44:53.573Z,68.99
2024-03-05T23:49:55.203Z,69.02
2024-03-05T23:55:00.135Z,68.97
